TimeEST,TemperatureF,Dew PointF,Humidity,Sea Level PressureIn,VisibilityMPH,Wind Direction,Wind SpeedMPH,Gust SpeedMPH,PrecipitationIn,Events,Conditions,WindDirDegrees,DateUTC
12:15 AM,39.2,30.2,70,30.30,10.0,SW,13.8,-,N/A,,Overcast,230,2013-11-26 05:15:00
12:35 AM,39.2,30.2,70,30.30,10.0,SW,15.0,18.4,N/A,,Overcast,230,2013-11-26 05:35:00
12:55 AM,39.2,32.0,75,30.30,10.0,WSW,12.7,-,N/A,,Overcast,240,2013-11-26 05:55:00
1:15 AM,39.2,32.0,75,30.31,10.0,WSW,12.7,-,N/A,,Overcast,250,2013-11-26 06:15:00
1:35 AM,39.2,32.0,75,30.32,10.0,WSW,15.0,23.0,N/A,,Overcast,250,2013-11-26 06:35:00
1:55 AM,39.2,32.0,75,30.30,10.0,WSW,13.8,20.7,N/A,,Overcast,240,2013-11-26 06:55:00
2:15 AM,39.2,32.0,75,30.31,10.0,WSW,16.1,21.9,N/A,,Overcast,250,2013-11-26 07:15:00
2:35 AM,39.2,28.4,65,30.31,10.0,WSW,19.6,25.3,N/A,,Overcast,240,2013-11-26 07:35:00
2:55 AM,39.2,28.4,65,30.30,10.0,WSW,12.7,19.6,N/A,,Overcast,240,2013-11-26 07:55:00
3:15 AM,39.2,28.4,65,30.29,10.0,SW,12.7,-,N/A,,Overcast,230,2013-11-26 08:15:00
3:35 AM,39.2,30.2,70,30.30,10.0,WSW,12.7,19.6,N/A,,Overcast,240,2013-11-26 08:35:00
3:55 AM,39.2,32.0,75,30.30,10.0,West,12.7,-,N/A,,Overcast,260,2013-11-26 08:55:00
4:15 AM,39.2,32.0,75,30.31,10.0,WSW,17.3,25.3,N/A,,Overcast,250,2013-11-26 09:15:00
4:35 AM,39.2,32.0,75,30.30,10.0,WSW,12.7,-,N/A,,Overcast,250,2013-11-26 09:35:00
4:55 AM,39.2,28.4,65,30.30,10.0,WSW,19.6,26.5,N/A,,Overcast,250,2013-11-26 09:55:00
5:15 AM,41.0,28.4,61,30.31,10.0,WSW,15.0,26.5,N/A,,Overcast,250,2013-11-26 10:15:00
5:35 AM,39.2,28.4,65,30.31,10.0,WSW,18.4,21.9,N/A,,Overcast,240,2013-11-26 10:35:00
5:55 AM,39.2,28.4,65,30.32,10.0,WSW,17.3,20.7,N/A,,Overcast,250,2013-11-26 10:55:00
6:15 AM,39.2,26.6,61,30.32,10.0,WSW,13.8,20.7,N/A,,Overcast,240,2013-11-26 11:15:00
6:35 AM,39.2,26.6,61,30.32,10.0,WSW,12.7,-,N/A,,Overcast,240,2013-11-26 11:35:00
6:55 AM,39.2,26.6,61,30.32,10.0,WSW,13.8,18.4,N/A,,Overcast,250,2013-11-26 11:55:00
7:15 AM,39.2,26.6,61,30.33,10.0,WSW,12.7,-,N/A,,Overcast,240,2013-11-26 12:15:00
7:35 AM,39.2,26.6,61,30.34,10.0,WSW,13.8,20.7,N/A,,Overcast,240,2013-11-26 12:35:00
7:55 AM,41.0,28.4,61,30.34,10.0,WSW,10.4,19.6,N/A,,Overcast,240,2013-11-26 12:55:00
8:15 AM,41.0,28.4,61,30.34,10.0,West,11.5,-,N/A,,Overcast,260,2013-11-26 13:15:00
8:35 AM,41.0,28.4,61,30.33,10.0,West,10.4,-,N/A,,Mostly Cloudy,260,2013-11-26 13:35:00
8:55 AM,41.0,26.6,57,30.33,10.0,West,11.5,-,N/A,,Mostly Cloudy,260,2013-11-26 13:55:00
9:15 AM,41.0,26.6,57,30.34,10.0,West,13.8,-,N/A,,Scattered Clouds,270,2013-11-26 14:15:00
9:35 AM,41.0,24.8,53,30.34,10.0,West,10.4,-,N/A,,Scattered Clouds,280,2013-11-26 14:35:00
9:55 AM,41.0,24.8,53,30.34,10.0,WSW,8.1,-,N/A,,Scattered Clouds,250,2013-11-26 14:55:00
10:15 AM,41.0,24.8,53,30.34,10.0,West,10.4,-,N/A,,Overcast,280,2013-11-26 15:15:00
10:35 AM,41.0,24.8,53,30.33,10.0,WSW,10.4,-,N/A,,Overcast,250,2013-11-26 15:35:00
10:55 AM,41.0,24.8,53,30.32,10.0,West,6.9,-,N/A,,Overcast,270,2013-11-26 15:55:00
11:15 AM,41.0,24.8,53,30.31,10.0,West,9.2,-,N/A,,Overcast,260,2013-11-26 16:15:00
11:35 AM,42.8,26.6,53,30.30,10.0,WSW,8.1,-,N/A,,Mostly Cloudy,240,2013-11-26 16:35:00
11:55 AM,42.8,26.6,53,30.29,10.0,WSW,9.2,-,N/A,,Overcast,240,2013-11-26 16:55:00
12:15 PM,44.6,28.4,53,30.29,10.0,SW,11.5,-,N/A,,Overcast,230,2013-11-26 17:15:00
12:35 PM,44.6,28.4,53,30.29,10.0,West,9.2,-,N/A,,Mostly Cloudy,260,2013-11-26 17:35:00
12:55 PM,44.6,28.4,53,30.29,10.0,WSW,10.4,-,N/A,,Overcast,240,2013-11-26 17:55:00
1:15 PM,44.6,28.4,53,30.29,10.0,WSW,10.4,-,N/A,,Overcast,240,2013-11-26 18:15:00
1:35 PM,44.6,28.4,53,30.29,10.0,SW,8.1,-,N/A,,Overcast,230,2013-11-26 18:35:00
1:55 PM,42.8,30.2,61,30.28,10.0,SW,6.9,-,N/A,,Overcast,220,2013-11-26 18:55:00
2:15 PM,42.8,30.2,61,30.28,10.0,SW,6.9,-,N/A,,Mostly Cloudy,230,2013-11-26 19:15:00
2:35 PM,42.8,30.2,61,30.29,10.0,WSW,4.6,-,N/A,,Clear,250,2013-11-26 19:35:00
2:55 PM,42.8,30.2,61,30.29,10.0,SSW,3.5,-,N/A,,Clear,210,2013-11-26 19:55:00
3:15 PM,42.8,32.0,66,30.29,10.0,SSW,4.6,-,N/A,,Partly Cloudy,200,2013-11-26 20:15:00
3:35 PM,42.8,32.0,66,30.29,10.0,South,3.5,-,N/A,,Partly Cloudy,190,2013-11-26 20:35:00
3:55 PM,41.0,32.0,70,30.29,10.0,SSE,4.6,-,N/A,,Mostly Cloudy,160,2013-11-26 20:55:00
4:15 PM,41.0,33.8,76,30.29,8.0,SE,4.6,-,N/A,,Overcast,130,2013-11-26 21:15:00
4:35 PM,39.2,35.6,87,30.29,10.0,ESE,4.6,-,N/A,,Overcast,120,2013-11-26 21:35:00
4:55 PM,39.2,35.6,87,30.28,10.0,East,5.8,-,N/A,,Overcast,100,2013-11-26 21:55:00
5:15 PM,39.2,35.6,87,30.28,10.0,East,3.5,-,N/A,,Overcast,90,2013-11-26 22:15:00
5:35 PM,39.2,35.6,87,30.28,10.0,ENE,4.6,-,N/A,,Overcast,70,2013-11-26 22:35:00
5:55 PM,39.2,35.6,87,30.27,10.0,ENE,3.5,-,N/A,,Overcast,70,2013-11-26 22:55:00
6:15 PM,39.2,35.6,87,30.26,10.0,East,4.6,-,N/A,,Overcast,80,2013-11-26 23:15:00
6:35 PM,39.2,35.6,87,30.26,-9999.0,East,5.8,-,N/A,,Unknown,90,2013-11-26 23:35:00
6:55 PM,39.2,35.6,87,30.26,10.0,East,6.9,-,N/A,,Overcast,90,2013-11-26 23:55:00
7:15 PM,39.2,37.4,93,30.25,9.0,East,5.8,-,N/A,,Overcast,80,2013-11-27 00:15:00
7:35 PM,39.2,37.4,93,30.25,7.0,East,4.6,-,N/A,Rain,Light Rain,80,2013-11-27 00:35:00
7:55 PM,39.2,37.4,93,30.23,5.0,East,6.9,-,N/A,Rain,Light Rain,90,2013-11-27 00:55:00
8:15 PM,39.2,37.4,93,30.23,8.0,East,5.8,-,N/A,,Overcast,90,2013-11-27 01:15:00
8:35 PM,39.2,37.4,93,30.22,8.0,ESE,5.8,-,N/A,Rain,Light Rain,110,2013-11-27 01:35:00
8:55 PM,41.0,39.2,93,30.20,7.0,East,5.8,-,N/A,,Overcast,90,2013-11-27 01:55:00
9:15 PM,41.0,39.2,93,30.19,5.0,East,6.9,-,N/A,Rain,Light Rain,100,2013-11-27 02:15:00
9:35 PM,42.8,41.0,93,30.17,6.0,East,8.1,-,N/A,Rain,Light Rain,100,2013-11-27 02:35:00
9:55 PM,44.6,42.8,93,30.16,5.0,ESE,9.2,-,N/A,Rain,Light Rain,110,2013-11-27 02:55:00
10:15 PM,44.6,42.8,93,30.14,5.0,ESE,10.4,16.1,N/A,Rain,Light Rain,110,2013-11-27 03:15:00
10:35 PM,44.6,44.6,100,30.13,4.0,ESE,11.5,17.3,N/A,Rain,Light Rain,110,2013-11-27 03:35:00
10:55 PM,46.4,44.6,93,30.11,5.0,ESE,12.7,19.6,0.01,Rain,Light Rain,120,2013-11-27 03:55:00
11:15 PM,46.4,44.6,93,30.10,9.0,ESE,15.0,20.7,N/A,,Overcast,120,2013-11-27 04:15:00
11:35 PM,46.4,46.4,100,30.07,10.0,ESE,12.7,19.6,N/A,,Overcast,110,2013-11-27 04:35:00
11:55 PM,46.4,46.4,100,30.05,10.0,ESE,15.0,20.7,N/A,,Overcast,120,2013-11-27 04:55:00